Time;durP1;ratioP1;P1;durP2;ratioP2;P2;SDS_P1;SDS_P2;PMS_P1;PMS_P2;Temp;Humidity;BMP_temperature;BMP_pressure;BME280_temperature;BME280_humidity;BME280_pressure;Samples;Min_cycle;Max_cycle;Signal;HPM_P1;HPM_P2
2021/10/17 00:02:05;;;;;;;33.80;20.10;;;;;;;6.39;100.00;98395.66;5013880;28;20033;-79
2021/10/17 00:04:31;;;;;;;33.25;20.25;;;;;;;6.39;100.00;98397.56;5013407;28;20042;-79
2021/10/17 00:06:56;;;;;;;34.20;20.85;;;;;;;6.40;100.00;98401.91;5011891;28;20471;-79
2021/10/17 00:09:21;;;;;;;34.28;20.95;;;;;;;6.40;100.00;98397.28;5011472;28;20122;-79
2021/10/17 00:11:47;;;;;;;36.75;19.80;;;;;;;6.40;100.00;98400.00;5010752;28;20426;-78
2021/10/17 00:14:12;;;;;;;27.15;18.23;;;;;;;6.40;100.00;98399.19;5011237;28;20022;-79
2021/10/17 00:16:38;;;;;;;31.50;19.85;;;;;;;6.46;100.00;98403.59;5010394;28;20069;-79
2021/10/17 00:19:03;;;;;;;33.22;19.63;;;;;;;6.31;100.00;98396.13;5010718;28;20057;-79
2021/10/17 00:21:29;;;;;;;31.60;19.48;;;;;;;6.24;100.00;98403.66;5011287;28;20026;-76
2021/10/17 00:23:54;;;;;;;29.90;18.42;;;;;;;6.11;100.00;98401.34;5011547;28;20030;-79
2021/10/17 00:26:20;;;;;;;28.02;17.77;;;;;;;6.04;100.00;98406.16;5011817;28;20033;-79
2021/10/17 00:28:45;;;;;;;31.05;18.85;;;;;;;6.03;100.00;98403.69;5027026;28;20033;-78
2021/10/17 00:31:11;;;;;;;27.27;17.00;;;;;;;5.95;100.00;98404.97;5011645;28;20026;-79
2021/10/17 00:33:37;;;;;;;26.33;17.02;;;;;;;5.84;100.00;98397.75;5011809;28;20064;-78
2021/10/17 00:36:03;;;;;;;27.70;16.85;;;;;;;5.77;100.00;98397.13;5010839;28;20026;-79
2021/10/17 00:38:29;;;;;;;27.73;17.85;;;;;;;5.73;100.00;98396.81;5013189;28;20040;-79
2021/10/17 00:40:54;;;;;;;29.80;16.98;;;;;;;5.69;100.00;98386.72;5011753;28;20777;-78
2021/10/17 00:43:20;;;;;;;26.88;16.75;;;;;;;5.67;100.00;98386.97;5012024;28;20041;-78
2021/10/17 00:45:46;;;;;;;25.23;17.27;;;;;;;5.60;100.00;98386.34;5012277;28;20034;-79
2021/10/17 00:48:11;;;;;;;27.75;17.67;;;;;;;5.62;100.00;98388.81;5030191;28;20029;-77
2021/10/17 00:50:36;;;;;;;27.15;16.60;;;;;;;5.71;100.00;98387.28;5012647;28;20022;-78
2021/10/17 00:53:02;;;;;;;27.20;16.90;;;;;;;5.75;100.00;98400.09;5018615;28;20069;-78
2021/10/17 00:55:31;;;;;;;27.58;17.10;;;;;;;5.70;100.00;98391.88;5020136;28;20108;-78
2021/10/17 00:58:00;;;;;;;24.88;17.20;;;;;;;5.85;100.00;98399.41;5014358;28;20037;-79
2021/10/17 01:00:27;;;;;;;25.90;16.88;;;;;;;5.80;100.00;98388.47;5030444;28;20042;-77
2021/10/17 01:02:53;;;;;;;24.70;16.77;;;;;;;5.77;100.00;98386.25;5029479;28;20036;-78
2021/10/17 01:05:18;;;;;;;25.67;16.45;;;;;;;5.83;100.00;98385.25;5014007;28;20503;-79
2021/10/17 01:07:47;;;;;;;25.67;16.23;;;;;;;5.85;100.00;98383.13;5011331;28;20037;-78
2021/10/17 01:10:13;;;;;;;25.08;16.42;;;;;;;5.82;100.00;98386.34;5011482;28;20073;-78
2021/10/17 01:12:39;;;;;;;26.05;15.55;;;;;;;5.69;100.00;98379.41;5011262;28;20112;-79
2021/10/17 01:15:05;;;;;;;25.55;16.10;;;;;;;5.73;100.00;98377.00;5009901;28;20121;-79
2021/10/17 01:17:33;;;;;;;26.17;17.80;;;;;;;5.74;100.00;98371.31;5010928;28;20026;-79
2021/10/17 01:19:59;;;;;;;26.85;16.95;;;;;;;5.77;100.00;98373.53;5013970;28;20124;-78
2021/10/17 01:22:25;;;;;;;28.25;16.58;;;;;;;5.66;100.00;98368.22;5014935;28;20030;-79
2021/10/17 01:24:52;;;;;;;25.30;16.00;;;;;;;5.61;100.00;98373.59;5013418;28;20022;-78
2021/10/17 01:27:17;;;;;;;25.48;16.52;;;;;;;5.54;100.00;98370.25;5013593;28;20040;-78
2021/10/17 01:29:43;;;;;;;27.30;16.80;;;;;;;5.57;100.00;98375.19;5014748;28;20030;-77
2021/10/17 01:32:08;;;;;;;25.38;16.75;;;;;;;5.56;100.00;98376.25;5014503;28;20033;-78
2021/10/17 01:34:34;;;;;;;30.73;17.17;;;;;;;5.56;100.00;98368.94;5015017;28;20032;-79
2021/10/17 01:36:59;;;;;;;26.65;17.48;;;;;;;5.46;100.00;98368.78;5013621;28;20025;-78
2021/10/17 01:39:25;;;;;;;27.65;17.27;;;;;;;5.44;100.00;98368.25;5015738;28;20487;-78
2021/10/17 01:41:51;;;;;;;29.05;17.13;;;;;;;5.48;100.00;98376.69;5019438;28;20030;-79
2021/10/17 01:44:27;;;;;;;28.45;16.65;;;;;;;5.39;100.00;98366.28;5019316;28;20037;-78
2021/10/17 01:46:55;;;;;;;25.35;17.02;;;;;;;5.53;100.00;98357.75;5016459;28;20475;-78
2021/10/17 01:49:20;;;;;;;26.95;16.35;;;;;;;5.58;100.00;98368.66;5026876;28;20024;-77
2021/10/17 01:51:46;;;;;;;29.42;16.65;;;;;;;5.63;100.00;98363.31;5039087;28;20006;-77
2021/10/17 01:54:12;;;;;;;27.60;17.52;;;;;;;5.72;100.00;98359.06;5018766;28;20037;-78
2021/10/17 01:56:38;;;;;;;25.80;15.95;;;;;;;5.79;100.00;98363.25;5017919;28;20036;-78
2021/10/17 01:59:03;;;;;;;31.80;16.67;;;;;;;5.85;100.00;98359.53;5013826;28;20114;-79
2021/10/17 02:01:29;;;;;;;25.45;16.38;;;;;;;5.87;100.00;98364.69;5012874;28;20181;-78
2021/10/17 02:03:55;;;;;;;30.95;17.80;;;;;;;5.90;100.00;98364.19;5013832;28;20057;-79
2021/10/17 02:06:21;;;;;;;28.08;17.17;;;;;;;5.87;100.00;98370.13;5013933;28;20045;-78
2021/10/17 02:08:46;;;;;;;30.48;18.42;;;;;;;5.89;100.00;98362.53;5012118;28;20510;-77
2021/10/17 02:11:12;;;;;;;28.25;17.83;;;;;;;5.89;100.00;98359.81;5013873;28;20105;-77
2021/10/17 02:13:39;;;;;;;30.15;17.45;;;;;;;5.83;100.00;98363.53;5013901;28;20036;-78
2021/10/17 02:16:05;;;;;;;28.30;17.42;;;;;;;5.71;100.00;98354.72;5015259;28;20034;-79
2021/10/17 02:18:30;;;;;;;31.52;18.70;;;;;;;5.72;100.00;98354.47;5016471;28;20022;-78
2021/10/17 02:20:55;;;;;;;26.58;17.52;;;;;;;5.68;100.00;98356.03;5013749;28;20494;-78
2021/10/17 02:23:21;;;;;;;34.22;19.15;;;;;;;5.66;100.00;98362.81;5012267;28;20061;-78
2021/10/17 02:25:46;;;;;;;40.72;20.38;;;;;;;5.45;100.00;98339.22;5011986;28;20471;-77
2021/10/17 02:28:12;;;;;;;50.85;20.02;;;;;;;5.54;100.00;98364.84;5012703;28;20542;-78
2021/10/17 02:30:37;;;;;;;49.65;20.25;;;;;;;5.61;100.00;98366.25;5028642;28;20026;-78
2021/10/17 02:33:02;;;;;;;55.85;22.35;;;;;;;5.58;100.00;98366.78;5013255;28;20030;-78
2021/10/17 02:35:28;;;;;;;63.15;22.52;;;;;;;5.56;100.00;98368.94;5011969;28;20121;-78
2021/10/17 02:37:53;;;;;;;68.07;22.88;;;;;;;5.43;100.00;98365.75;5012935;28;20029;-78
2021/10/17 02:40:19;;;;;;;44.67;22.05;;;;;;;5.46;100.00;98367.97;5015166;28;20507;-78
2021/10/17 02:42:44;;;;;;;35.53;20.15;;;;;;;5.57;100.00;98369.75;5028267;28;20038;-78
2021/10/17 02:45:10;;;;;;;53.53;22.05;;;;;;;5.50;100.00;98369.13;5013928;28;20039;-78
2021/10/17 02:47:35;;;;;;;39.53;22.02;;;;;;;5.64;100.00;98373.09;5010704;28;20556;-78
2021/10/17 02:50:01;;;;;;;37.13;20.70;;;;;;;5.77;100.00;98370.81;5012803;28;20061;-77
2021/10/17 02:52:26;;;;;;;35.13;20.40;;;;;;;5.90;100.00;98377.75;5012550;28;20030;-77
2021/10/17 02:54:51;;;;;;;31.83;18.67;;;;;;;5.99;100.00;98378.13;5028097;28;20045;-78
2021/10/17 02:57:17;;;;;;;28.83;19.85;;;;;;;6.06;100.00;98378.75;5012921;28;20051;-78
2021/10/17 02:59:42;;;;;;;30.85;19.85;;;;;;;6.11;100.00;98382.31;5028609;28;20487;-78
2021/10/17 03:02:08;;;;;;;34.45;19.98;;;;;;;6.08;100.00;98377.41;5015197;28;20029;-78
2021/10/17 03:04:33;;;;;;;32.53;18.75;;;;;;;6.06;100.00;98385.00;5012969;28;20052;-77
2021/10/17 03:06:59;;;;;;;31.38;18.65;;;;;;;6.09;100.00;98384.50;5033339;28;20026;-78
2021/10/17 03:09:24;;;;;;;33.00;17.85;;;;;;;6.11;100.00;98384.25;5019588;28;20089;-78
2021/10/17 03:11:49;;;;;;;28.90;17.23;;;;;;;6.11;100.00;98376.91;5014729;28;20475;-77
2021/10/17 03:14:15;;;;;;;26.83;16.10;;;;;;;6.07;100.00;98386.66;5012116;28;20060;-77
2021/10/17 03:16:45;;;;;;;28.67;17.33;;;;;;;6.03;100.00;98379.25;5011888;28;20037;-78
2021/10/17 03:19:11;;;;;;;27.33;16.52;;;;;;;6.05;100.00;98383.34;5012212;28;20025;-77
2021/10/17 03:21:37;;;;;;;27.10;15.63;;;;;;;5.99;100.00;98384.38;5011806;28;20105;-78
2021/10/17 03:24:03;;;;;;;30.02;16.05;;;;;;;6.03;100.00;98380.09;5011495;28;20137;-77
2021/10/17 03:26:28;;;;;;;31.77;17.13;;;;;;;6.04;100.00;98387.16;5011494;28;20112;-78
2021/10/17 03:28:54;;;;;;;25.10;15.63;;;;;;;6.10;100.00;98382.59;5011563;28;20061;-78
2021/10/17 03:31:19;;;;;;;27.98;16.92;;;;;;;6.03;100.00;98385.50;5011338;28;20080;-77
2021/10/17 03:33:44;;;;;;;29.80;17.05;;;;;;;6.14;100.00;98381.03;5011633;28;20079;-78
2021/10/17 03:36:10;;;;;;;35.17;18.67;;;;;;;6.08;100.00;98387.44;5011284;28;20022;-78
2021/10/17 03:38:36;;;;;;;37.83;18.15;;;;;;;6.02;100.00;98380.31;5011308;28;20084;-77
2021/10/17 03:41:01;;;;;;;38.05;18.95;;;;;;;6.06;100.00;98381.47;5010589;28;20076;-77
2021/10/17 03:43:26;;;;;;;40.95;19.35;;;;;;;6.09;100.00;98370.09;5026524;28;20029;-78
2021/10/17 03:45:52;;;;;;;36.38;18.05;;;;;;;6.23;100.00;98385.72;5011522;28;20022;-78
2021/10/17 03:48:17;;;;;;;42.53;18.90;;;;;;;6.14;100.00;98372.88;4994949;28;21460;-78
2021/10/17 03:50:43;;;;;;;52.90;19.02;;;;;;;6.14;100.00;98392.69;5006670;28;20027;-77
2021/10/17 03:53:08;;;;;;;57.60;17.65;;;;;;;6.01;100.00;98392.28;4991497;28;20539;-77
2021/10/17 03:55:34;;;;;;;38.45;18.48;;;;;;;6.01;100.00;98390.38;4991673;28;20597;-77
2021/10/17 03:57:59;;;;;;;62.95;19.77;;;;;;;5.98;100.00;98396.34;4991600;28;20026;-78
2021/10/17 04:00:26;;;;;;;51.53;20.13;;;;;;;5.87;100.00;98392.66;4991414;28;20030;-77
2021/10/17 04:02:52;;;;;;;45.67;21.02;;;;;;;5.90;100.00;98385.91;5006946;28;20030;-77
2021/10/17 04:05:18;;;;;;;63.47;20.40;;;;;;;5.91;100.00;98393.81;4992715;28;20046;-78
2021/10/17 04:07:45;;;;;;;64.25;19.15;;;;;;;5.89;100.00;98389.69;4994017;28;20034;-77
2021/10/17 04:10:10;;;;;;;39.22;19.05;;;;;;;5.97;100.00;98388.44;5007957;28;20030;-77
2021/10/17 04:12:35;;;;;;;86.60;20.70;;;;;;;5.91;100.00;98393.00;4989784;28;20451;-77
2021/10/17 04:15:01;;;;;;;42.05;20.10;;;;;;;5.96;100.00;98389.50;4989838;28;20034;-77
2021/10/17 04:17:27;;;;;;;57.20;18.40;;;;;;;5.94;100.00;98397.91;4991648;28;20041;-77
2021/10/17 04:19:53;;;;;;;50.55;20.02;;;;;;;5.91;100.00;98403.84;4991398;28;20109;-77
2021/10/17 04:22:19;;;;;;;69.45;20.77;;;;;;;5.86;100.00;98395.63;4991364;28;20045;-76
2021/10/17 04:24:45;;;;;;;46.20;20.63;;;;;;;5.90;100.00;98394.88;4991237;28;20073;-77
2021/10/17 04:27:11;;;;;;;60.85;21.15;;;;;;;6.02;100.00;98405.59;5006002;28;20022;-77
2021/10/17 04:29:37;;;;;;;47.10;24.85;;;;;;;6.09;100.00;98406.22;4991375;28;20491;-77
2021/10/17 04:32:03;;;;;;;55.47;21.98;;;;;;;6.05;100.00;98410.50;4991684;28;20840;-78
2021/10/17 04:34:29;;;;;;;80.18;21.70;;;;;;;6.01;100.00;98403.97;4992383;28;20034;-77
2021/10/17 04:36:55;;;;;;;119.82;22.50;;;;;;;5.93;100.00;98405.22;4990870;28;20030;-77
2021/10/17 04:39:21;;;;;;;107.22;22.90;;;;;;;5.92;100.00;98406.28;4991092;28;20026;-78
2021/10/17 04:41:46;;;;;;;95.03;24.58;;;;;;;5.91;100.00;98409.28;4992399;28;20133;-77
2021/10/17 04:44:11;;;;;;;133.80;26.13;;;;;;;5.98;100.00;98403.66;5005955;28;20018;-77
2021/10/17 04:46:37;;;;;;;134.23;25.30;;;;;;;6.07;100.00;98407.56;4993345;28;20038;-77
2021/10/17 04:49:03;;;;;;;77.45;23.33;;;;;;;5.99;100.00;98406.09;5010929;28;20018;-78
2021/10/17 04:51:28;;;;;;;139.70;24.60;;;;;;;5.93;100.00;98405.22;5011848;28;20030;-77
2021/10/17 04:53:53;;;;;;;63.50;21.75;;;;;;;5.97;100.00;98402.81;5014581;28;20544;-77
2021/10/17 04:56:19;;;;;;;152.43;24.98;;;;;;;5.99;100.00;98407.97;5014382;28;20044;-77
2021/10/17 04:58:45;;;;;;;211.35;25.27;;;;;;;5.78;100.00;98404.19;5014616;28;20099;-77
2021/10/17 05:01:10;;;;;;;168.10;26.38;;;;;;;5.79;100.00;98414.81;5013185;28;20376;-77
2021/10/17 05:03:36;;;;;;;169.77;24.63;;;;;;;5.73;100.00;98404.94;5029397;28;20036;-77
2021/10/17 05:06:01;;;;;;;175.07;22.80;;;;;;;5.77;100.00;98413.41;5014575;28;20025;-77
2021/10/17 05:08:27;;;;;;;111.80;21.75;;;;;;;5.82;100.00;98416.19;5012808;28;20026;-77
2021/10/17 05:10:52;;;;;;;130.85;25.60;;;;;;;5.74;100.00;98408.47;5013083;28;20088;-77
2021/10/17 05:13:18;;;;;;;116.05;26.55;;;;;;;5.78;100.00;98420.47;5014538;28;20033;-77
2021/10/17 05:15:43;;;;;;;103.35;23.58;;;;;;;5.89;100.00;98425.81;5014901;28;20493;-77
2021/10/17 05:18:09;;;;;;;230.55;24.90;;;;;;;5.95;100.00;98415.84;5015420;28;20037;-77
2021/10/17 05:20:34;;;;;;;103.90;21.67;;;;;;;5.92;100.00;98429.91;5015127;28;20168;-77
2021/10/17 05:23:00;;;;;;;83.70;19.45;;;;;;;5.91;100.00;98426.38;5034976;28;20033;-76
2021/10/17 05:25:25;;;;;;;108.35;20.77;;;;;;;5.86;100.00;98434.44;5033946;28;20518;-77
2021/10/17 05:27:51;;;;;;;92.90;21.08;;;;;;;5.98;100.00;98436.22;5025564;28;20030;-78
2021/10/17 05:30:17;;;;;;;118.75;19.45;;;;;;;5.95;100.00;98440.28;5031424;28;20057;-76
2021/10/17 05:32:43;;;;;;;61.65;19.20;;;;;;;5.99;100.00;98437.84;5014876;28;20486;-77
2021/10/17 05:35:08;;;;;;;70.22;18.40;;;;;;;6.06;100.00;98438.47;5013912;28;20454;-77
2021/10/17 05:37:34;;;;;;;90.78;20.20;;;;;;;6.09;100.00;98443.41;5013643;28;20030;-77
2021/10/17 05:39:59;;;;;;;130.23;20.02;;;;;;;6.03;100.00;98450.69;5013679;28;20038;-78
2021/10/17 05:42:24;;;;;;;119.85;21.25;;;;;;;6.05;100.00;98447.69;5013729;28;20727;-77
2021/10/17 05:44:50;;;;;;;77.60;19.15;;;;;;;6.09;100.00;98455.09;5013673;28;20026;-77
2021/10/17 05:47:15;;;;;;;84.30;18.70;;;;;;;6.09;100.00;98449.66;5005729;28;20049;-77
2021/10/17 05:49:40;;;;;;;115.88;20.35;;;;;;;5.98;100.00;98445.19;4994599;28;20030;-77
2021/10/17 05:52:06;;;;;;;59.25;19.92;;;;;;;6.02;100.00;98443.59;4994307;28;20026;-77
2021/10/17 05:54:32;;;;;;;120.97;21.80;;;;;;;6.12;100.00;98453.75;4995166;28;20030;-76
2021/10/17 05:56:57;;;;;;;58.13;20.73;;;;;;;6.10;100.00;98451.31;4995670;28;20085;-77
2021/10/17 05:59:22;;;;;;;45.53;20.75;;;;;;;6.21;100.00;98452.22;4992146;28;20368;-77
2021/10/17 06:01:48;;;;;;;79.85;19.65;;;;;;;6.16;100.00;98454.91;5008716;28;20030;-77
2021/10/17 06:04:14;;;;;;;113.10;19.52;;;;;;;6.12;100.00;98460.00;4991437;28;20096;-76
2021/10/17 06:06:43;;;;;;;62.60;17.92;;;;;;;6.13;100.00;98461.66;4993582;28;20046;-76
2021/10/17 06:09:09;;;;;;;68.50;19.77;;;;;;;6.13;100.00;98461.66;4993159;28;20038;-76
2021/10/17 06:11:36;;;;;;;65.95;19.58;;;;;;;6.22;100.00;98464.75;4993201;28;20037;-76
2021/10/17 06:14:02;;;;;;;74.45;20.20;;;;;;;6.23;100.00;98455.53;4993289;28;20027;-76
2021/10/17 06:16:27;;;;;;;78.07;21.17;;;;;;;6.17;100.00;98473.63;4993577;28;20073;-77
2021/10/17 06:18:53;;;;;;;183.93;24.05;;;;;;;6.22;100.00;98470.16;4993868;28;20391;-76
2021/10/17 06:21:18;;;;;;;78.28;22.48;;;;;;;6.27;100.00;98471.03;4994099;28;20022;-75
2021/10/17 06:23:43;;;;;;;180.38;38.50;;;;;;;6.27;100.00;98471.03;5008701;28;20113;-77
2021/10/17 06:26:09;;;;;;;65.38;21.08;;;;;;;6.55;100.00;98474.63;5010313;28;20131;-76
2021/10/17 06:28:35;;;;;;;47.72;18.98;;;;;;;7.03;100.00;98481.84;4993937;28;20066;-77
2021/10/17 06:31:01;;;;;;;36.80;17.60;;;;;;;7.10;100.00;98483.28;4993830;28;20033;-76
2021/10/17 06:33:26;;;;;;;42.55;19.30;;;;;;;6.83;100.00;98482.47;5008098;28;20121;-75
2021/10/17 06:35:52;;;;;;;50.80;22.65;;;;;;;6.69;100.00;98483.97;4993114;28;20018;-77
2021/10/17 06:38:17;;;;;;;45.92;21.17;;;;;;;6.67;100.00;98488.88;4992708;28;20080;-76
2021/10/17 06:40:43;;;;;;;66.38;21.55;;;;;;;6.58;100.00;98487.69;4992985;28;20061;-77
2021/10/17 06:43:08;;;;;;;64.00;20.73;;;;;;;6.54;100.00;98492.00;5007777;28;20018;-76
2021/10/17 06:45:34;;;;;;;49.15;22.60;;;;;;;6.58;100.00;98501.28;5007710;28;20037;-77
2021/10/17 06:47:59;;;;;;;39.15;22.27;;;;;;;6.59;100.00;98492.84;5006490;28;20047;-77
2021/10/17 06:50:25;;;;;;;48.25;21.08;;;;;;;6.48;100.00;98494.63;5012317;28;20026;-77
2021/10/17 06:52:51;;;;;;;38.28;20.95;;;;;;;6.56;100.00;98503.41;5011928;28;20029;-76
2021/10/17 06:55:17;;;;;;;46.20;20.63;;;;;;;6.58;100.00;98495.84;5026985;28;20102;-76
2021/10/17 06:57:42;;;;;;;40.67;20.63;;;;;;;6.61;100.00;98500.75;5011946;28;20034;-76
2021/10/17 07:00:08;;;;;;;46.00;20.38;;;;;;;6.83;100.00;98513.19;5012065;28;20030;-76
2021/10/17 07:02:34;;;;;;;38.47;20.80;;;;;;;6.83;100.00;98506.94;5010407;28;20122;-76
2021/10/17 07:04:59;;;;;;;41.13;20.25;;;;;;;6.84;100.00;98501.25;5026216;28;20133;-77
2021/10/17 07:07:25;;;;;;;39.00;18.42;;;;;;;6.79;100.00;98503.13;5027095;28;20033;-76
2021/10/17 07:09:50;;;;;;;55.25;20.38;;;;;;;6.82;100.00;98513.47;5011846;28;20383;-76
2021/10/17 07:12:16;;;;;;;47.40;20.42;;;;;;;6.81;100.00;98500.94;5013678;28;20034;-75
2021/10/17 07:14:41;;;;;;;60.63;20.42;;;;;;;6.90;100.00;98507.56;5026400;28;20120;-75
2021/10/17 07:17:06;;;;;;;41.53;20.27;;;;;;;7.06;100.00;98509.34;5011665;28;20030;-75
2021/10/17 07:19:32;;;;;;;28.90;18.05;;;;;;;7.17;100.00;98510.25;4995082;28;20479;-77
2021/10/17 07:21:58;;;;;;;45.38;20.83;;;;;;;7.17;100.00;98512.97;4992834;28;20038;-76
2021/10/17 07:24:23;;;;;;;47.33;22.35;;;;;;;7.21;100.00;98505.91;4997564;28;20099;-79
2021/10/17 07:26:49;;;;;;;42.70;20.80;;;;;;;7.21;100.00;98506.75;5010075;28;20888;-78
2021/10/17 07:29:14;;;;;;;58.35;22.00;;;;;;;7.20;100.00;98512.44;5009460;28;20024;-78
2021/10/17 07:31:40;;;;;;;46.65;21.77;;;;;;;7.28;100.00;98511.97;5015097;28;20052;-79
2021/10/17 07:34:06;;;;;;;50.67;22.42;;;;;;;7.30;100.00;98517.97;5036262;28;20034;-80
2021/10/17 07:36:31;;;;;;;71.10;22.08;;;;;;;7.38;100.00;98510.16;5037352;28;20084;-81
2021/10/17 07:38:58;;;;;;;49.83;22.30;;;;;;;7.39;100.00;98513.69;5021019;28;20074;-79
2021/10/17 07:41:25;;;;;;;46.08;22.30;;;;;;;7.14;100.00;98519.72;5019382;28;20553;-81
2021/10/17 07:43:51;;;;;;;85.65;24.02;;;;;;;6.92;100.00;98497.25;5012919;28;20087;-79
2021/10/17 07:46:16;;;;;;;64.05;23.77;;;;;;;7.07;100.00;98500.09;5006660;28;20037;-78
2021/10/17 07:48:42;;;;;;;100.97;24.65;;;;;;;7.16;100.00;98511.31;5007470;28;20034;-78
2021/10/17 07:51:08;;;;;;;60.22;23.15;;;;;;;7.37;100.00;98510.41;5006928;28;20121;-77
2021/10/17 07:53:33;;;;;;;49.83;23.60;;;;;;;7.45;100.00;98516.19;5004986;28;20038;-78
2021/10/17 07:55:59;;;;;;;41.25;23.20;;;;;;;7.51;100.00;98501.53;5006325;28;20040;-77
2021/10/17 07:58:25;;;;;;;34.47;21.45;;;;;;;7.69;100.00;98507.63;5006347;28;20022;-77
2021/10/17 08:00:53;;;;;;;37.10;23.40;;;;;;;7.86;100.00;98509.06;5006090;28;20164;-78
2021/10/17 08:03:19;;;;;;;36.95;21.98;;;;;;;8.02;100.00;98521.69;5016656;28;20018;-81
2021/10/17 08:05:44;;;;;;;35.22;22.77;;;;;;;8.04;100.00;98505.94;5035298;28;20043;-76
2021/10/17 08:08:10;;;;;;;38.58;23.05;;;;;;;8.21;100.00;98508.44;5038041;28;20110;-80
2021/10/17 08:10:35;;;;;;;36.42;23.45;;;;;;;8.13;100.00;98506.22;5034696;28;20033;-78
2021/10/17 08:13:02;;;;;;;36.42;21.90;;;;;;;8.38;100.00;98517.25;5012837;28;20030;-79
2021/10/17 08:15:28;;;;;;;37.42;23.63;;;;;;;8.41;100.00;98519.47;5011059;28;20184;-79
2021/10/17 08:18:09;;;;;;;36.47;22.52;;;;;;;8.39;100.00;98524.38;5012782;28;20053;-78
2021/10/17 08:20:35;;;;;;;36.92;22.65;;;;;;;8.38;100.00;98517.25;5023261;28;20014;-79
2021/10/17 08:23:01;;;;;;;41.15;23.75;;;;;;;8.50;100.00;98515.13;5025302;28;20032;-79
2021/10/17 08:25:26;;;;;;;38.88;22.70;;;;;;;8.56;100.00;98518.66;5027893;28;20033;-79
2021/10/17 08:27:52;;;;;;;39.17;23.75;;;;;;;8.52;100.00;98507.47;5023741;28;20038;-81
2021/10/17 08:30:17;;;;;;;42.55;23.73;;;;;;;8.70;100.00;98517.09;5009528;28;20471;-77
2021/10/17 08:32:43;;;;;;;104.28;38.50;;;;;;;8.71;100.00;98515.19;5007416;28;20113;-77
2021/10/17 08:35:08;;;;;;;66.32;28.65;;;;;;;8.68;100.00;98521.19;5006897;28;20022;-78
2021/10/17 08:37:34;;;;;;;40.95;24.25;;;;;;;8.48;100.00;98517.31;5009050;28;20549;-79
2021/10/17 08:40:00;;;;;;;41.80;26.35;;;;;;;8.31;100.00;98524.03;5008149;28;20540;-78
2021/10/17 08:42:26;;;;;;;42.42;25.55;;;;;;;8.26;100.00;98519.38;5006642;28;20091;-78
2021/10/17 08:44:55;;;;;;;56.88;28.65;;;;;;;8.47;100.00;98520.28;5008770;28;20132;-76
2021/10/17 08:47:24;;;;;;;45.00;25.35;;;;;;;8.69;100.00;98528.25;5022374;28;20037;-77
2021/10/17 08:49:51;;;;;;;37.83;23.75;;;;;;;8.93;100.00;98523.94;5008337;28;20029;-76
2021/10/17 08:52:17;;;;;;;55.88;30.83;;;;;;;9.10;100.00;98525.34;5007282;28;20029;-78
2021/10/17 08:54:44;;;;;;;39.03;24.60;;;;;;;9.00;100.00;98524.50;5007973;28;20026;-77
2021/10/17 08:57:10;;;;;;;107.38;56.03;;;;;;;8.96;100.00;98531.56;5006728;28;20045;-76
2021/10/17 08:59:35;;;;;;;44.08;25.65;;;;;;;8.89;100.00;98525.59;5010104;28;20034;-76
2021/10/17 09:02:18;;;;;;;43.28;26.35;;;;;;;9.02;100.00;98527.78;5009943;28;20037;-77
2021/10/17 09:05:09;;;;;;;39.45;26.13;;;;;;;9.32;100.00;98526.97;5009121;28;20136;-78
2021/10/17 09:07:35;;;;;;;38.78;24.50;;;;;;;9.34;100.00;98530.25;5011059;28;20037;-78
2021/10/17 09:10:12;;;;;;;39.50;26.08;;;;;;;9.15;100.00;98528.06;5011451;28;20041;-79
2021/10/17 09:12:39;;;;;;;38.08;25.17;;;;;;;9.43;100.00;98523.16;5015176;28;20022;-79
2021/10/17 09:15:23;;;;;;;36.53;23.40;;;;;;;9.74;100.00;98518.50;5014915;28;20013;-79
2021/10/17 09:18:03;;;;;;;38.60;25.25;;;;;;;9.63;100.00;98526.69;5017917;28;20021;-78
2021/10/17 09:20:29;;;;;;;39.92;26.88;;;;;;;9.71;100.00;98524.50;5014568;28;20510;-77
2021/10/17 09:23:05;;;;;;;36.78;24.30;;;;;;;10.01;100.00;98524.44;5013882;28;20034;-79
2021/10/17 09:25:36;;;;;;;37.10;24.13;;;;;;;10.05;100.00;98523.59;5013912;28;20122;-80
2021/10/17 09:28:16;;;;;;;40.97;26.20;;;;;;;10.41;100.00;98524.31;5010582;28;20034;-80
2021/10/17 09:30:42;;;;;;;38.30;25.20;;;;;;;10.91;99.04;98517.75;5010682;28;20057;-80
2021/10/17 09:33:14;;;;;;;37.38;23.30;;;;;;;11.52;94.17;98523.59;5007181;28;20038;-77
2021/10/17 09:35:42;;;;;;;36.63;23.10;;;;;;;12.21;90.45;98525.94;5010633;28;20026;-75
2021/10/17 09:38:08;;;;;;;32.85;22.75;;;;;;;12.85;85.63;98528.13;5010749;28;20383;-76
2021/10/17 09:40:35;;;;;;;32.97;23.00;;;;;;;13.42;82.52;98531.72;5008170;28;20033;-75
2021/10/17 09:43:29;;;;;;;31.25;21.23;;;;;;;14.21;78.37;98527.00;5009675;28;20115;-75
2021/10/17 09:46:09;;;;;;;30.27;22.27;;;;;;;15.23;73.19;98537.50;5010246;28;20026;-78
2021/10/17 09:48:35;;;;;;;29.73;21.50;;;;;;;15.45;70.02;98537.53;5012474;28;20040;-75
2021/10/17 09:51:06;;;;;;;26.38;19.88;;;;;;;16.22;68.69;98537.25;5011365;28;20026;-74
2021/10/17 09:53:44;;;;;;;25.65;20.92;;;;;;;16.34;67.11;98527.25;5012203;28;20142;-73
2021/10/17 09:56:31;;;;;;;35.70;22.95;;;;;;;16.77;67.32;98534.88;5008816;28;20045;-72
2021/10/17 09:59:02;;;;;;;34.20;23.10;;;;;;;17.72;61.76;98527.47;5011685;28;20505;-78
2021/10/17 10:01:28;;;;;;;26.83;20.33;;;;;;;17.09;63.46;98528.91;5011337;28;20124;-75
2021/10/17 10:03:55;;;;;;;24.70;19.02;;;;;;;18.03;60.35;98528.88;5012237;28;20041;-76
2021/10/17 10:06:22;;;;;;;25.30;19.90;;;;;;;18.01;59.57;98531.16;5011238;28;20050;-81
2021/10/17 10:09:09;;;;;;;27.13;20.05;;;;;;;17.77;60.69;98528.13;5009079;28;20522;-75
2021/10/17 10:11:37;;;;;;;27.27;19.92;;;;;;;18.97;57.44;98519.34;5010131;28;20053;-77
2021/10/17 10:14:05;;;;;;;23.50;19.20;;;;;;;18.85;56.91;98524.00;5041735;28;20033;-74
2021/10/17 10:16:33;;;;;;;27.40;19.83;;;;;;;17.96;59.74;98517.50;5009337;28;20148;-76
2021/10/17 10:19:09;;;;;;;23.88;18.50;;;;;;;17.78;60.48;98515.09;5013058;28;20033;-79
2021/10/17 10:21:36;;;;;;;26.40;21.10;;;;;;;17.41;61.10;98519.34;5016116;28;20041;-81
2021/10/17 10:24:04;;;;;;;22.77;18.90;;;;;;;17.46;61.68;98514.44;5012882;28;20032;-78
2021/10/17 10:26:31;;;;;;;24.42;19.00;;;;;;;17.58;62.23;98509.09;5014831;28;20033;-79
2021/10/17 10:28:58;;;;;;;24.95;19.20;;;;;;;17.62;62.41;98507.31;5011131;28;20036;-77
2021/10/17 10:31:53;;;;;;;23.50;18.15;;;;;;;18.57;58.44;98498.72;5007724;28;20058;-79
2021/10/17 10:34:21;;;;;;;22.02;18.05;;;;;;;19.03;56.29;98495.81;5009747;28;20116;-77
2021/10/17 10:36:47;;;;;;;23.52;18.23;;;;;;;18.03;60.35;98501.19;5009778;28;20033;-77
2021/10/17 10:39:24;;;;;;;23.88;19.95;;;;;;;16.72;62.65;98488.88;5007751;28;20057;-76
2021/10/17 10:41:56;;;;;;;27.90;20.58;;;;;;;15.36;66.52;98476.00;5006605;28;20034;-73
2021/10/17 10:44:21;;;;;;;26.42;19.92;;;;;;;17.58;64.30;98481.44;5007330;28;20194;-73
2021/10/17 10:46:51;;;;;;;26.77;19.42;;;;;;;18.40;58.19;98476.59;5012522;28;20026;-87
2021/10/17 10:49:42;;;;;;;23.88;18.52;;;;;;;18.41;60.01;98472.69;5015992;28;20494;-86
2021/10/17 10:52:34;;;;;;;22.77;17.15;;;;;;;17.11;59.30;98468.56;5016699;28;20037;-88
2021/10/17 10:55:02;;;;;;;25.27;18.95;;;;;;;17.74;59.78;98469.84;5013081;28;20042;-87
2021/10/17 10:57:35;;;;;;;24.65;18.42;;;;;;;19.03;56.80;98470.84;5013352;28;20057;-86
2021/10/17 11:00:06;;;;;;;22.73;18.38;;;;;;;18.95;56.17;98460.63;5013257;28;20884;-86
2021/10/17 11:02:32;;;;;;;24.83;17.70;;;;;;;19.30;53.05;98463.13;5012534;28;20038;-86
2021/10/17 11:05:01;;;;;;;24.13;18.75;;;;;;;19.39;52.80;98459.13;5012921;28;20046;-86
2021/10/17 11:07:41;;;;;;;27.10;21.73;;;;;;;16.77;61.35;98447.25;5011831;28;20387;-84
2021/10/17 11:10:27;;;;;;;28.77;21.15;;;;;;;16.94;61.41;98447.28;5014467;28;20484;-82
2021/10/17 11:12:57;;;;;;;25.67;19.48;;;;;;;16.80;61.20;98449.38;5033073;28;20048;-79
2021/10/17 11:15:27;;;;;;;23.98;18.30;;;;;;;15.85;63.67;98442.75;5036674;28;20014;-77
2021/10/17 11:18:04;;;;;;;22.33;16.73;;;;;;;15.35;63.89;98446.78;5035807;28;20086;-78